Terminal Aerodrome Forecast
Issued by NWS

Home | Current Version | Previous Version | Text Only | Print | Product List | Glossary On
Versions: 1 2 3 4 5 6 7 8 9 10 11 12 13 14 15 16 17 18 19 20 21 22 23 24 25 26 27 28 29 30 31 32 33 34
000
FTUS45 KPSR 181700
TAFSDL
TAF
KSDL 181731Z 1818/1918 VRB03KT P6SM VCSH FEW030 BKN050 OVC100
     FM182200 28005KT P6SM SCT040 BKN060 OVC100
     FM190200 VRB03KT P6SM FEW040 SCT200=

USA.gov is the U.S. government's official web portal to all federal, state and local government web resources and services.